Terminal Aerodrome Forecast
Issued by NWS

Home | Current Version | Previous Version | Text Only | Print | Product List | Glossary On
Versions: 1 2 3 4 5 6 7 8 9 10 11 12 13 14 15 16 17 18 19 20 21
000
FTUS43 KDLH 200725 AAA
TAFHIB
TAF AMD
KHIB 200725Z 2007/2106 13013G18KT 6SM SHRA VCTS SCT030CB OVC050
      WS015/16050KT
      TEMPO 2007/2010 VRB20G40KT 2SM +TSRA BR OVC015CB
     FM201100 15009KT 5SM -SHRA BR OVC006
     FM201300 20009KT 3SM BR OVC006
     FM201600 25010KT P6SM BKN035
     FM210100 22003KT P6SM SKC=

USA.gov is the U.S. government's official web portal to all federal, state and local government web resources and services.